Time;durP1;ratioP1;P1;durP2;ratioP2;P2;SDS_P1;SDS_P2;PMS_P1;PMS_P2;Temp;Humidity;BMP_temperature;BMP_pressure;BME280_temperature;BME280_humidity;BME280_pressure;Samples;Min_cycle;Max_cycle;Signal;HPM_P1;HPM_P2
2024/03/16 00:01:25;;;;;;;;;;;20.50;53.70;;;;;;1565805;76;702;-76
2024/03/16 00:03:28;;;;;;;;;;;20.50;53.70;;;;;;1552847;75;1158;-79
2024/03/16 00:05:30;;;;;;;;;;;20.50;53.70;;;;;;1560426;75;666;-78
2024/03/16 00:07:32;;;;;;;;;;;20.60;53.80;;;;;;1562963;75;1955;-76
2024/03/16 00:09:34;;;;;;;;;;;20.50;53.80;;;;;;1560543;75;790;-75
2024/03/16 00:11:35;;;;;;;;;;;20.50;53.90;;;;;;1560048;75;592;-76
2024/03/16 00:13:37;;;;;;;;;;;20.50;53.90;;;;;;1559094;75;1595;-79
2024/03/16 00:15:39;;;;;;;;;;;20.60;53.90;;;;;;1557450;75;600;-78
2024/03/16 00:17:41;;;;;;;;;;;20.50;53.90;;;;;;1559149;76;832;-81
2024/03/16 00:19:45;;;;;;;;;;;20.50;53.90;;;;;;1557088;75;748;-75
2024/03/16 00:21:47;;;;;;;;;;;20.50;53.90;;;;;;1556110;75;757;-76
2024/03/16 00:23:49;;;;;;;;;;;20.50;53.90;;;;;;1561206;76;1176;-74
2024/03/16 00:25:51;;;;;;;;;;;20.60;54.00;;;;;;1564550;75;730;-77
2024/03/16 00:27:53;;;;;;;;;;;20.50;54.00;;;;;;1559270;75;1924;-79
2024/03/16 00:29:55;;;;;;;;;;;20.50;54.10;;;;;;1563532;75;681;-78
2024/03/16 00:31:57;;;;;;;;;;;20.50;54.00;;;;;;1560482;75;740;-81
2024/03/16 00:33:59;;;;;;;;;;;20.60;54.10;;;;;;1563703;75;1148;-79
2024/03/16 00:36:01;;;;;;;;;;;20.60;54.10;;;;;;1561641;75;700;-76
2024/03/16 00:38:03;;;;;;;;;;;20.60;54.20;;;;;;1557780;75;786;-74
2024/03/16 00:40:07;;;;;;;;;;;20.50;54.20;;;;;;1562671;75;722;-76
2024/03/16 00:42:09;;;;;;;;;;;20.60;54.20;;;;;;1563273;75;1549;-77
2024/03/16 00:44:11;;;;;;;;;;;20.60;54.20;;;;;;1561970;75;1182;-76
2024/03/16 00:46:13;;;;;;;;;;;20.50;54.20;;;;;;1563856;75;733;-77
2024/03/16 00:48:15;;;;;;;;;;;20.50;54.30;;;;;;1564869;75;1940;-78
2024/03/16 00:50:17;;;;;;;;;;;20.50;54.30;;;;;;1559471;75;712;-79
2024/03/16 00:52:19;;;;;;;;;;;20.50;54.30;;;;;;1560433;75;718;-77
2024/03/16 00:54:21;;;;;;;;;;;20.50;54.30;;;;;;1561544;75;1158;-78
2024/03/16 00:56:23;;;;;;;;;;;20.50;54.40;;;;;;1566083;75;1497;-79
2024/03/16 00:58:25;;;;;;;;;;;20.50;54.40;;;;;;1555024;75;728;-77
2024/03/16 01:00:27;;;;;;;;;;;20.50;54.40;;;;;;1562665;75;745;-82
2024/03/16 01:02:29;;;;;;;;;;;20.50;54.30;;;;;;1556870;75;853;-83
2024/03/16 01:04:32;;;;;;;;;;;20.50;54.40;;;;;;1564372;75;1062;-81
2024/03/16 01:06:34;;;;;;;;;;;20.60;54.40;;;;;;1565367;75;731;-78
2024/03/16 01:08:36;;;;;;;;;;;20.50;54.40;;;;;;1556006;75;1927;-77
2024/03/16 01:10:38;;;;;;;;;;;20.60;54.40;;;;;;1565717;75;1421;-76
2024/03/16 01:12:40;;;;;;;;;;;20.50;54.40;;;;;;1562721;76;701;-77
2024/03/16 01:14:42;;;;;;;;;;;20.50;54.40;;;;;;1564321;75;1172;-77
2024/03/16 01:16:44;;;;;;;;;;;20.60;54.40;;;;;;1561279;75;715;-81
2024/03/16 01:18:45;;;;;;;;;;;20.50;54.40;;;;;;1560873;75;752;-79
2024/03/16 01:20:47;;;;;;;;;;;20.50;54.40;;;;;;1563462;75;636;-76
2024/03/16 01:22:49;;;;;;;;;;;20.60;54.50;;;;;;1564173;75;1130;-76
2024/03/16 01:24:51;;;;;;;;;;;20.50;54.40;;;;;;1569149;75;1340;-79
2024/03/16 01:26:53;;;;;;;;;;;20.60;54.50;;;;;;1567294;75;669;-76
2024/03/16 01:28:55;;;;;;;;;;;20.50;54.50;;;;;;1561974;75;2080;-78
2024/03/16 01:30:57;;;;;;;;;;;20.50;54.50;;;;;;1559000;75;800;-84
2024/03/16 01:32:59;;;;;;;;;;;20.60;54.50;;;;;;1558873;75;1172;-77
2024/03/16 01:35:01;;;;;;;;;;;20.50;54.50;;;;;;1564340;75;741;-76
2024/03/16 01:37:02;;;;;;;;;;;20.50;54.60;;;;;;1564256;76;765;-75
2024/03/16 01:39:05;;;;;;;;;;;20.50;54.60;;;;;;1564478;75;1462;-75
2024/03/16 01:41:07;;;;;;;;;;;20.50;54.50;;;;;;1559658;75;750;-77
2024/03/16 01:43:12;;;;;;;;;;;20.50;54.50;;;;;;1561196;75;1130;-76
2024/03/16 01:45:18;;;;;;;;;;;20.50;54.60;;;;;;1552382;76;787;-78
2024/03/16 01:47:20;;;;;;;;;;;20.50;54.50;;;;;;1561763;76;1024;-76
2024/03/16 01:49:21;;;;;;;;;;;20.50;54.60;;;;;;1558945;76;1932;-76
2024/03/16 01:51:23;;;;;;;;;;;20.60;54.60;;;;;;1557564;75;704;-75
2024/03/16 01:53:25;;;;;;;;;;;20.50;54.50;;;;;;1553340;76;1574;-78
2024/03/16 01:55:27;;;;;;;;;;;20.50;54.60;;;;;;1563907;75;723;-77
2024/03/16 01:57:29;;;;;;;;;;;20.50;54.50;;;;;;1557770;76;739;-86
2024/03/16 01:59:31;;;;;;;;;;;20.50;54.50;;;;;;1555553;75;747;-82
2024/03/16 02:01:33;;;;;;;;;;;20.50;54.50;;;;;;1557698;76;710;-79
2024/03/16 02:03:35;;;;;;;;;;;20.50;54.60;;;;;;1556556;75;1136;-82
2024/03/16 02:05:37;;;;;;;;;;;20.50;54.60;;;;;;1561456;76;726;-77
2024/03/16 02:07:39;;;;;;;;;;;20.60;54.70;;;;;;1561202;75;1651;-77
2024/03/16 02:09:41;;;;;;;;;;;20.60;54.70;;;;;;1555065;75;1947;-76
2024/03/16 02:11:43;;;;;;;;;;;20.60;54.70;;;;;;1559862;75;696;-77
2024/03/16 02:13:45;;;;;;;;;;;20.50;54.70;;;;;;1563658;75;1191;-77
2024/03/16 02:15:47;;;;;;;;;;;20.50;54.70;;;;;;1563521;75;642;-77
2024/03/16 02:17:50;;;;;;;;;;;20.50;54.70;;;;;;1562038;75;728;-82
2024/03/16 02:19:52;;;;;;;;;;;20.50;54.70;;;;;;1557390;75;1545;-77
2024/03/16 02:21:54;;;;;;;;;;;20.50;54.80;;;;;;1565018;75;765;-78
2024/03/16 02:23:56;;;;;;;;;;;20.50;54.70;;;;;;1562319;75;1219;-80
2024/03/16 02:25:58;;;;;;;;;;;20.50;54.80;;;;;;1557019;75;708;-78
2024/03/16 02:28:00;;;;;;;;;;;20.50;54.80;;;;;;1556445;75;759;-76
2024/03/16 02:30:02;;;;;;;;;;;20.50;54.80;;;;;;1552676;75;1948;-76
2024/03/16 02:32:08;;;;;;;;;;;20.60;54.80;;;;;;1556827;75;651;-79
2024/03/16 02:34:09;;;;;;;;;;;20.50;54.90;;;;;;1559857;75;1503;-81
2024/03/16 02:36:13;;;;;;;;;;;20.50;54.80;;;;;;1564780;75;697;-80
2024/03/16 02:38:15;;;;;;;;;;;20.60;54.80;;;;;;1560268;75;777;-79
2024/03/16 02:40:17;;;;;;;;;;;20.50;54.80;;;;;;1545906;75;854;-77
2024/03/16 02:42:19;;;;;;;;;;;20.50;54.80;;;;;;1558125;75;745;-77
2024/03/16 02:44:21;;;;;;;;;;;20.60;54.80;;;;;;1561370;76;1182;-79
2024/03/16 02:46:23;;;;;;;;;;;20.50;54.80;;;;;;1560446;76;736;-78
2024/03/16 02:48:25;;;;;;;;;;;20.50;54.80;;;;;;1561193;75;1464;-79
2024/03/16 02:50:27;;;;;;;;;;;20.50;54.90;;;;;;1545893;76;1932;-82
2024/03/16 02:52:29;;;;;;;;;;;20.50;54.90;;;;;;1549093;75;746;-80
2024/03/16 02:54:31;;;;;;;;;;;20.50;54.80;;;;;;1556827;75;1185;-79
2024/03/16 02:56:33;;;;;;;;;;;20.60;54.90;;;;;;1558457;75;726;-77
2024/03/16 02:58:35;;;;;;;;;;;20.50;54.90;;;;;;1555459;75;770;-77
2024/03/16 03:00:37;;;;;;;;;;;20.60;54.90;;;;;;1552314;75;580;-77
2024/03/16 03:02:39;;;;;;;;;;;20.50;55.00;;;;;;1546768;75;1281;-78
2024/03/16 03:04:40;;;;;;;;;;;20.50;54.90;;;;;;1553626;75;1184;-80
2024/03/16 03:06:42;;;;;;;;;;;20.50;54.90;;;;;;1553705;75;721;-77
2024/03/16 03:08:45;;;;;;;;;;;20.60;54.90;;;;;;1556657;75;1913;-78
2024/03/16 03:10:46;;;;;;;;;;;20.50;54.90;;;;;;1548851;75;625;-78
2024/03/16 03:12:49;;;;;;;;;;;20.50;54.90;;;;;;1554952;75;1136;-79
2024/03/16 03:14:51;;;;;;;;;;;20.60;54.90;;;;;;1549558;76;727;-78
2024/03/16 03:16:53;;;;;;;;;;;20.50;54.90;;;;;;1557813;76;1441;-77
2024/03/16 03:18:55;;;;;;;;;;;20.50;54.90;;;;;;1557532;75;728;-77
2024/03/16 03:20:57;;;;;;;;;;;20.50;54.90;;;;;;1547841;75;741;-81
2024/03/16 03:22:59;;;;;;;;;;;20.60;55.00;;;;;;1557080;76;1165;-79
2024/03/16 03:25:01;;;;;;;;;;;20.50;54.90;;;;;;1551112;76;737;-82
2024/03/16 03:27:03;;;;;;;;;;;20.50;55.00;;;;;;1550270;75;749;-77
2024/03/16 03:29:05;;;;;;;;;;;20.60;55.00;;;;;;1553135;75;1933;-77
2024/03/16 03:31:08;;;;;;;;;;;20.60;54.90;;;;;;1554839;76;1360;-79
2024/03/16 03:33:10;;;;;;;;;;;20.60;54.90;;;;;;1559380;76;1121;-78
2024/03/16 03:35:12;;;;;;;;;;;20.60;54.90;;;;;;1554768;76;670;-77
2024/03/16 03:37:14;;;;;;;;;;;20.50;54.90;;;;;;1557053;76;820;-79
2024/03/16 03:39:16;;;;;;;;;;;20.50;55.00;;;;;;1547930;76;744;-81
2024/03/16 03:41:18;;;;;;;;;;;20.50;54.90;;;;;;1548461;76;764;-80
2024/03/16 03:43:24;;;;;;;;;;;20.50;55.00;;;;;;1549806;76;1202;-77
2024/03/16 03:45:49;;;;;;;;;;;20.50;55.00;;;;;;1548205;76;1491;-83
2024/03/16 03:48:00;;;;;;;;;;;20.50;55.00;;;;;;1543220;76;1648;-78
2024/03/16 03:49:54;;;;;;;;;;;20.50;55.00;;;;;;1549112;76;1928;-79
2024/03/16 03:51:59;;;;;;;;;;;20.60;55.00;;;;;;1553788;75;735;-77
2024/03/16 03:54:04;;;;;;;;;;;20.50;55.00;;;;;;1551028;76;1216;-77
2024/03/16 03:56:04;;;;;;;;;;;20.50;55.00;;;;;;1554682;76;1764;-78
2024/03/16 03:58:06;;;;;;;;;;;20.50;55.00;;;;;;1550564;75;636;-81
2024/03/16 04:00:09;;;;;;;;;;;20.60;55.00;;;;;;1554961;76;1612;-85
2024/03/16 04:02:11;;;;;;;;;;;20.60;55.00;;;;;;1552516;76;730;-80
2024/03/16 04:04:12;;;;;;;;;;;20.50;55.00;;;;;;1553422;76;1268;-77
2024/03/16 04:06:14;;;;;;;;;;;20.50;55.00;;;;;;1555392;76;726;-77
2024/03/16 04:08:16;;;;;;;;;;;20.50;55.00;;;;;;1550352;76;719;-81
2024/03/16 04:10:18;;;;;;;;;;;20.50;54.90;;;;;;1554851;75;1934;-77
2024/03/16 04:12:20;;;;;;;;;;;20.50;55.00;;;;;;1549903;75;1453;-80
2024/03/16 04:14:22;;;;;;;;;;;20.50;55.00;;;;;;1550585;76;1114;-77
2024/03/16 04:16:24;;;;;;;;;;;20.50;55.00;;;;;;1550354;75;728;-78
2024/03/16 04:18:26;;;;;;;;;;;20.50;55.00;;;;;;1555054;75;654;-77
2024/03/16 04:20:28;;;;;;;;;;;20.60;55.00;;;;;;1548671;75;605;-78
2024/03/16 04:22:30;;;;;;;;;;;20.60;55.00;;;;;;1554587;75;717;-81
2024/03/16 04:24:31;;;;;;;;;;;20.50;55.00;;;;;;1547145;75;1123;-79
2024/03/16 04:26:33;;;;;;;;;;;20.60;55.00;;;;;;1550690;76;1410;-76
2024/03/16 04:28:37;;;;;;;;;;;20.40;55.00;;;;;;1558510;76;720;-80
2024/03/16 04:30:39;;;;;;;;;;;20.50;55.00;;;;;;1545119;75;1921;-77
2024/03/16 04:32:41;;;;;;;;;;;20.50;55.10;;;;;;1558644;75;705;-77
2024/03/16 04:34:43;;;;;;;;;;;20.50;55.10;;;;;;1550685;76;1126;-80
2024/03/16 04:36:44;;;;;;;;;;;20.60;55.00;;;;;;1554707;75;750;-77
2024/03/16 04:38:46;;;;;;;;;;;20.50;55.10;;;;;;1557313;75;859;-79
2024/03/16 04:40:49;;;;;;;;;;;20.50;55.10;;;;;;1556968;75;1552;-76
2024/03/16 04:42:51;;;;;;;;;;;20.50;55.00;;;;;;1547965;76;1105;-77
2024/03/16 04:44:53;;;;;;;;;;;20.50;55.10;;;;;;1546443;76;728;-79
2024/03/16 04:46:55;;;;;;;;;;;20.50;55.10;;;;;;1549184;75;746;-76
2024/03/16 04:48:56;;;;;;;;;;;20.50;55.20;;;;;;1553723;75;967;-79
2024/03/16 04:50:58;;;;;;;;;;;20.50;55.10;;;;;;1562529;75;1941;-76
2024/03/16 04:53:00;;;;;;;;;;;20.60;55.20;;;;;;1569250;75;1201;-76
2024/03/16 04:55:03;;;;;;;;;;;20.50;55.20;;;;;;1567322;75;1629;-81
2024/03/16 04:57:05;;;;;;;;;;;20.50;55.20;;;;;;1569797;75;645;-77
2024/03/16 04:59:07;;;;;;;;;;;20.50;55.20;;;;;;1571804;75;745;-78
2024/03/16 05:01:13;;;;;;;;;;;20.50;55.20;;;;;;1569853;75;674;-78
2024/03/16 05:03:15;;;;;;;;;;;20.50;55.20;;;;;;1569435;75;1198;-77
2024/03/16 05:05:18;;;;;;;;;;;20.50;55.20;;;;;;1568189;75;694;-77
2024/03/16 05:07:20;;;;;;;;;;;20.50;55.20;;;;;;1558449;75;831;-76
2024/03/16 05:09:22;;;;;;;;;;;20.50;55.20;;;;;;1566449;75;1930;-76
2024/03/16 05:11:24;;;;;;;;;;;20.50;55.20;;;;;;1569719;75;735;-75
2024/03/16 05:13:28;;;;;;;;;;;20.40;55.10;;;;;;1569862;75;1137;-76
2024/03/16 05:15:30;;;;;;;;;;;20.50;55.20;;;;;;1564611;75;756;-76
2024/03/16 05:17:32;;;;;;;;;;;20.40;55.10;;;;;;1562281;75;723;-76
2024/03/16 05:19:34;;;;;;;;;;;20.50;55.20;;;;;;1560433;75;792;-77
2024/03/16 05:21:36;;;;;;;;;;;20.40;55.10;;;;;;1567839;75;678;-76
2024/03/16 05:23:39;;;;;;;;;;;20.50;55.20;;;;;;1570009;75;1583;-77
2024/03/16 05:25:43;;;;;;;;;;;20.50;55.20;;;;;;1570128;75;842;-74
2024/03/16 05:27:45;;;;;;;;;;;20.50;55.20;;;;;;1563357;75;1164;-77
2024/03/16 05:29:47;;;;;;;;;;;20.50;55.20;;;;;;1568356;75;1931;-76
2024/03/16 05:31:58;;;;;;;;;;;20.50;55.20;;;;;;1557359;75;688;-76
2024/03/16 05:34:00;;;;;;;;;;;20.50;55.20;;;;;;1558887;75;1124;-80
2024/03/16 05:36:05;;;;;;;;;;;20.50;55.20;;;;;;1565576;75;730;-77
2024/03/16 05:38:06;;;;;;;;;;;20.50;55.20;;;;;;1564349;75;1599;-77
2024/03/16 05:40:10;;;;;;;;;;;20.40;55.20;;;;;;1566920;75;703;-77
2024/03/16 05:42:11;;;;;;;;;;;20.40;55.10;;;;;;1567838;75;759;-77
2024/03/16 05:44:13;;;;;;;;;;;20.50;55.30;;;;;;1565661;75;1133;-79
2024/03/16 05:46:15;;;;;;;;;;;20.50;55.30;;;;;;1566546;75;771;-82
2024/03/16 05:48:20;;;;;;;;;;;20.60;55.30;;;;;;1569883;75;722;-77
2024/03/16 05:50:22;;;;;;;;;;;20.50;55.40;;;;;;1558543;75;1940;-78
2024/03/16 05:52:24;;;;;;;;;;;20.50;55.30;;;;;;1552099;76;1524;-78
2024/03/16 05:54:31;;;;;;;;;;;20.50;55.50;;;;;;1545770;76;1211;-82
2024/03/16 05:56:30;;;;;;;;;;;20.60;55.40;;;;;;1555834;76;1003;-78
2024/03/16 05:58:32;;;;;;;;;;;20.50;55.50;;;;;;1551097;76;946;-78
2024/03/16 06:00:37;;;;;;;;;;;20.50;55.50;;;;;;1545877;76;652;-83
2024/03/16 06:02:38;;;;;;;;;;;20.50;55.50;;;;;;1547058;76;937;-80
2024/03/16 06:04:40;;;;;;;;;;;20.60;55.50;;;;;;1556084;75;1114;-78
2024/03/16 06:06:42;;;;;;;;;;;20.50;55.50;;;;;;1552637;76;1628;-75
2024/03/16 06:08:44;;;;;;;;;;;20.50;55.70;;;;;;1545837;76;599;-79
2024/03/16 06:10:47;;;;;;;;;;;20.50;55.60;;;;;;1549291;75;1927;-86
2024/03/16 06:12:49;;;;;;;;;;;20.50;55.70;;;;;;1553600;76;1149;-78
2024/03/16 06:14:51;;;;;;;;;;;20.50;55.70;;;;;;1549832;75;799;-81
2024/03/16 06:16:53;;;;;;;;;;;20.50;55.70;;;;;;1549549;75;710;-77
2024/03/16 06:18:55;;;;;;;;;;;20.50;55.70;;;;;;1551335;76;1523;-76
2024/03/16 06:20:57;;;;;;;;;;;20.50;55.70;;;;;;1549018;76;758;-76
2024/03/16 06:22:59;;;;;;;;;;;20.60;55.70;;;;;;1555576;75;1144;-77
2024/03/16 06:25:02;;;;;;;;;;;20.50;55.80;;;;;;1548245;76;636;-79
2024/03/16 06:27:05;;;;;;;;;;;20.60;55.80;;;;;;1555521;76;742;-77
2024/03/16 06:29:12;;;;;;;;;;;20.50;55.80;;;;;;1548599;76;762;-78
2024/03/16 06:31:11;;;;;;;;;;;20.60;55.80;;;;;;1550079;75;1928;-78
2024/03/16 06:33:21;;;;;;;;;;;20.60;55.80;;;;;;1546352;76;1457;-78
2024/03/16 06:35:16;;;;;;;;;;;20.50;55.90;;;;;;1555743;75;1148;-76
2024/03/16 06:37:18;;;;;;;;;;;20.50;55.90;;;;;;1555944;75;702;-76
2024/03/16 06:39:21;;;;;;;;;;;20.50;55.90;;;;;;1557066;75;795;-77
2024/03/16 06:41:23;;;;;;;;;;;20.60;55.90;;;;;;1554642;75;743;-75
2024/03/16 06:43:25;;;;;;;;;;;20.60;55.90;;;;;;1550583;75;1143;-74
2024/03/16 06:45:27;;;;;;;;;;;20.50;56.00;;;;;;1555018;75;766;-75
2024/03/16 06:47:28;;;;;;;;;;;20.60;56.00;;;;;;1553891;76;1529;-75
2024/03/16 06:49:30;;;;;;;;;;;20.50;56.20;;;;;;1557546;76;807;-75
2024/03/16 06:51:32;;;;;;;;;;;20.50;56.00;;;;;;1554807;75;1963;-78
2024/03/16 06:53:34;;;;;;;;;;;20.50;56.00;;;;;;1571487;75;1181;-78
2024/03/16 06:55:37;;;;;;;;;;;20.50;55.80;;;;;;1570972;75;759;-79
2024/03/16 06:57:39;;;;;;;;;;;20.50;55.90;;;;;;1566657;75;712;-77
2024/03/16 06:59:41;;;;;;;;;;;20.60;55.80;;;;;;1559933;75;830;-77
2024/03/16 07:01:43;;;;;;;;;;;20.50;55.90;;;;;;1566948;75;1516;-79
2024/03/16 07:03:45;;;;;;;;;;;20.50;55.80;;;;;;1566933;75;1208;-76
2024/03/16 07:05:47;;;;;;;;;;;20.60;55.80;;;;;;1568359;75;697;-75
2024/03/16 07:07:49;;;;;;;;;;;20.60;55.80;;;;;;1567516;75;691;-78
2024/03/16 07:09:52;;;;;;;;;;;20.60;55.80;;;;;;1569462;75;735;-76
2024/03/16 07:11:54;;;;;;;;;;;20.60;55.80;;;;;;1565266;75;1927;-79
2024/03/16 07:13:55;;;;;;;;;;;20.60;55.70;;;;;;1563769;75;1130;-83
2024/03/16 07:15:57;;;;;;;;;;;20.60;55.80;;;;;;1567013;75;1328;-75
2024/03/16 07:17:59;;;;;;;;;;;20.50;55.70;;;;;;1569099;75;799;-78
2024/03/16 07:20:02;;;;;;;;;;;20.50;55.80;;;;;;1566069;75;757;-79
2024/03/16 07:22:04;;;;;;;;;;;20.50;55.70;;;;;;1566599;74;733;-79
2024/03/16 07:24:09;;;;;;;;;;;20.60;55.70;;;;;;1566884;74;1104;-81
2024/03/16 07:26:10;;;;;;;;;;;20.50;55.70;;;;;;1568659;74;1939;-80
2024/03/16 07:28:13;;;;;;;;;;;20.60;55.70;;;;;;1567567;74;738;-77
2024/03/16 07:30:17;;;;;;;;;;;20.60;55.70;;;;;;1562675;74;1916;-77
2024/03/16 07:32:19;;;;;;;;;;;20.60;55.70;;;;;;1565335;74;1202;-79
2024/03/16 07:34:21;;;;;;;;;;;20.60;55.70;;;;;;1563477;74;1176;-78
2024/03/16 07:36:23;;;;;;;;;;;20.50;55.80;;;;;;1556339;74;698;-74
2024/03/16 07:38:25;;;;;;;;;;;20.60;55.80;;;;;;1565232;75;752;-77
2024/03/16 07:40:27;;;;;;;;;;;20.60;56.00;;;;;;1570189;75;644;-68
2024/03/16 07:42:29;;;;;;;;;;;20.50;56.10;;;;;;1569070;75;646;-70
2024/03/16 07:44:32;;;;;;;;;;;20.50;56.30;;;;;;1558426;75;1399;-82
2024/03/16 07:46:33;;;;;;;;;;;20.60;56.60;;;;;;1568860;75;744;-75
2024/03/16 07:48:35;;;;;;;;;;;20.60;56.30;;;;;;1567059;75;741;-77
2024/03/16 07:50:37;;;;;;;;;;;20.60;56.30;;;;;;1558612;75;1929;-76
2024/03/16 07:52:39;;;;;;;;;;;20.60;56.30;;;;;;1551069;75;914;-77
2024/03/16 07:54:41;;;;;;;;;;;20.60;56.30;;;;;;1547694;76;1087;-76
2024/03/16 07:56:43;;;;;;;;;;;20.60;56.20;;;;;;1546265;76;631;-76
2024/03/16 07:58:45;;;;;;;;;;;20.70;56.30;;;;;;1557704;75;1525;-77
2024/03/16 08:00:47;;;;;;;;;;;20.60;56.20;;;;;;1551678;75;889;-75
2024/03/16 08:02:49;;;;;;;;;;;20.60;56.10;;;;;;1546038;76;1205;-75
2024/03/16 08:04:50;;;;;;;;;;;20.70;56.30;;;;;;1555637;76;672;-75
2024/03/16 08:06:52;;;;;;;;;;;20.60;56.10;;;;;;1559671;75;755;-74
2024/03/16 08:08:54;;;;;;;;;;;20.60;56.00;;;;;;1558178;75;603;-75
2024/03/16 08:10:56;;;;;;;;;;;20.60;56.00;;;;;;1549442;75;1939;-75
2024/03/16 08:12:58;;;;;;;;;;;20.70;56.20;;;;;;1555691;75;1462;-76
2024/03/16 08:15:00;;;;;;;;;;;20.70;56.30;;;;;;1543600;76;745;-80
2024/03/16 08:17:05;;;;;;;;;;;20.60;56.10;;;;;;1553855;75;776;-77
2024/03/16 08:19:07;;;;;;;;;;;20.70;56.30;;;;;;1552744;75;717;-76
2024/03/16 08:21:09;;;;;;;;;;;20.60;56.10;;;;;;1558938;75;727;-76
2024/03/16 08:23:11;;;;;;;;;;;20.60;56.20;;;;;;1547716;75;1167;-77
2024/03/16 08:25:13;;;;;;;;;;;20.60;56.20;;;;;;1559759;75;821;-80
2024/03/16 08:27:16;;;;;;;;;;;20.60;56.20;;;;;;1555108;76;1628;-72
2024/03/16 08:29:18;;;;;;;;;;;20.70;56.80;;;;;;1551764;76;778;-76
2024/03/16 08:31:20;;;;;;;;;;;20.70;56.60;;;;;;1554580;75;1926;-75
2024/03/16 08:33:22;;;;;;;;;;;20.70;56.50;;;;;;1549460;75;1122;-74
2024/03/16 08:35:24;;;;;;;;;;;20.70;56.60;;;;;;1551039;75;716;-74
2024/03/16 08:37:26;;;;;;;;;;;20.70;56.60;;;;;;1547526;76;701;-75
2024/03/16 08:39:27;;;;;;;;;;;20.70;56.50;;;;;;1557387;76;772;-76
2024/03/16 08:41:29;;;;;;;;;;;20.70;56.50;;;;;;1555673;76;1849;-73
2024/03/16 08:43:31;;;;;;;;;;;20.70;56.40;;;;;;1556096;76;1140;-74
2024/03/16 08:45:35;;;;;;;;;;;20.70;56.50;;;;;;1551487;75;715;-74
2024/03/16 08:47:37;;;;;;;;;;;20.80;56.50;;;;;;1556206;75;695;-73
2024/03/16 08:49:39;;;;;;;;;;;20.80;56.40;;;;;;1556015;75;632;-70
2024/03/16 08:51:41;;;;;;;;;;;20.80;56.50;;;;;;1554929;75;1928;-76
2024/03/16 08:53:43;;;;;;;;;;;20.70;56.60;;;;;;1562463;76;1558;-76
2024/03/16 08:55:45;;;;;;;;;;;20.80;56.90;;;;;;1562989;76;564;-75
2024/03/16 08:57:47;;;;;;;;;;;20.70;56.70;;;;;;1556569;76;777;-79
2024/03/16 08:59:49;;;;;;;;;;;20.80;55.70;;;;;;1560814;75;730;-81
2024/03/16 09:01:50;;;;;;;;;;;20.70;55.90;;;;;;1547250;76;757;-76
2024/03/16 09:03:52;;;;;;;;;;;20.70;55.90;;;;;;1559526;75;1136;-78
2024/03/16 09:05:54;;;;;;;;;;;20.70;56.00;;;;;;1566588;75;685;-80
2024/03/16 09:07:56;;;;;;;;;;;20.70;56.00;;;;;;1564875;75;1523;-78
2024/03/16 09:09:58;;;;;;;;;;;20.70;56.10;;;;;;1559822;76;651;-80
2024/03/16 09:12:00;;;;;;;;;;;20.70;56.00;;;;;;1556865;76;1939;-82
2024/03/16 09:14:05;;;;;;;;;;;20.70;56.10;;;;;;1562023;75;1132;-82
2024/03/16 09:16:05;;;;;;;;;;;20.80;56.00;;;;;;1558042;76;1717;-77
2024/03/16 09:18:07;;;;;;;;;;;20.80;56.10;;;;;;1555529;75;742;-77
2024/03/16 09:20:10;;;;;;;;;;;20.80;56.10;;;;;;1564317;75;775;-78
2024/03/16 09:22:12;;;;;;;;;;;20.70;56.10;;;;;;1563550;76;1328;-80
2024/03/16 09:24:13;;;;;;;;;;;20.80;56.10;;;;;;1561076;75;1096;-77
2024/03/16 09:26:15;;;;;;;;;;;20.70;56.10;;;;;;1562618;76;747;-80
2024/03/16 09:28:18;;;;;;;;;;;20.80;56.10;;;;;;1558661;75;680;-80
2024/03/16 09:30:20;;;;;;;;;;;20.70;56.10;;;;;;1560829;76;751;-83
2024/03/16 09:32:22;;;;;;;;;;;20.80;56.10;;;;;;1555580;76;1955;-78
2024/03/16 09:34:24;;;;;;;;;;;20.80;56.00;;;;;;1562687;76;1144;-79
2024/03/16 09:36:25;;;;;;;;;;;20.80;56.00;;;;;;1556982;75;1553;-85
2024/03/16 09:38:27;;;;;;;;;;;20.80;56.00;;;;;;1553384;76;664;-79
2024/03/16 09:40:30;;;;;;;;;;;20.80;56.00;;;;;;1562180;76;846;-77
2024/03/16 09:42:32;;;;;;;;;;;20.80;56.00;;;;;;1561267;76;673;-77
2024/03/16 09:44:34;;;;;;;;;;;20.80;56.00;;;;;;1559141;76;1118;-82
2024/03/16 09:46:36;;;;;;;;;;;20.80;56.00;;;;;;1556645;75;751;-78
2024/03/16 09:48:38;;;;;;;;;;;20.70;56.00;;;;;;1562555;76;875;-78
2024/03/16 09:50:44;;;;;;;;;;;20.80;56.00;;;;;;1561019;75;1514;-77
2024/03/16 09:52:47;;;;;;;;;;;20.70;56.00;;;;;;1560477;75;1958;-79
2024/03/16 09:54:49;;;;;;;;;;;20.80;55.90;;;;;;1555805;76;726;-82
2024/03/16 09:56:51;;;;;;;;;;;20.80;56.00;;;;;;1555270;76;755;-83
2024/03/16 09:58:54;;;;;;;;;;;20.80;55.90;;;;;;1554288;76;765;-79
2024/03/16 10:00:56;;;;;;;;;;;20.80;55.80;;;;;;1549497;76;956;-78
2024/03/16 10:02:58;;;;;;;;;;;20.70;55.90;;;;;;1550313;76;1155;-83
2024/03/16 10:04:59;;;;;;;;;;;20.80;55.90;;;;;;1558813;76;1577;-78
2024/03/16 10:07:01;;;;;;;;;;;20.80;55.80;;;;;;1545424;75;708;-77
2024/03/16 10:09:10;;;;;;;;;;;20.80;55.80;;;;;;1550209;75;743;-83
2024/03/16 10:11:12;;;;;;;;;;;20.80;55.80;;;;;;1550468;76;1921;-78
2024/03/16 10:13:15;;;;;;;;;;;20.80;55.80;;;;;;1559017;76;1162;-78
2024/03/16 10:15:19;;;;;;;;;;;20.80;55.70;;;;;;1555376;76;727;-83
2024/03/16 10:17:20;;;;;;;;;;;20.70;55.70;;;;;;1551698;75;1591;-80
2024/03/16 10:19:22;;;;;;;;;;;20.80;55.70;;;;;;1555766;75;1531;-77
2024/03/16 10:21:27;;;;;;;;;;;20.80;55.70;;;;;;1558714;76;663;-78
2024/03/16 10:23:27;;;;;;;;;;;20.80;55.70;;;;;;1554395;76;1667;-78
2024/03/16 10:25:30;;;;;;;;;;;20.80;55.70;;;;;;1519359;77;1230;-81
2024/03/16 10:27:31;;;;;;;;;;;20.80;55.70;;;;;;1511283;77;1089;-81
2024/03/16 10:29:33;;;;;;;;;;;20.80;55.70;;;;;;1494885;77;731;-77
2024/03/16 10:31:38;;;;;;;;;;;20.80;55.60;;;;;;1503592;77;1936;-77
2024/03/16 10:33:39;;;;;;;;;;;20.80;55.60;;;;;;1519354;77;1529;-80
2024/03/16 10:35:41;;;;;;;;;;;20.80;55.60;;;;;;1503248;78;730;-78
2024/03/16 10:37:43;;;;;;;;;;;20.80;55.60;;;;;;1497006;78;718;-77
2024/03/16 10:39:45;;;;;;;;;;;20.80;55.50;;;;;;1495880;78;738;-78
2024/03/16 10:41:47;;;;;;;;;;;20.80;55.50;;;;;;1495720;78;694;-77
2024/03/16 10:43:49;;;;;;;;;;;20.70;55.50;;;;;;1499532;79;1164;-78
2024/03/16 10:45:52;;;;;;;;;;;20.80;55.50;;;;;;1487102;79;754;-80
2024/03/16 10:47:54;;;;;;;;;;;20.80;55.50;;;;;;1484880;78;1654;-77
2024/03/16 10:49:56;;;;;;;;;;;20.80;55.50;;;;;;1489539;79;641;-78
2024/03/16 10:51:58;;;;;;;;;;;20.80;55.50;;;;;;1498133;78;1930;-80
2024/03/16 10:54:00;;;;;;;;;;;20.80;55.40;;;;;;1565746;75;1171;-81
2024/03/16 10:56:02;;;;;;;;;;;20.80;55.50;;;;;;1561554;75;673;-79
2024/03/16 10:58:06;;;;;;;;;;;20.80;55.40;;;;;;1557125;75;644;-84
2024/03/16 11:00:14;;;;;;;;;;;20.80;55.40;;;;;;1563506;75;1018;-84
2024/03/16 11:02:18;;;;;;;;;;;20.70;55.40;;;;;;1533704;76;679;-77
2024/03/16 11:04:19;;;;;;;;;;;20.80;55.40;;;;;;1564631;75;1148;-78
2024/03/16 11:06:23;;;;;;;;;;;20.70;55.30;;;;;;1555823;75;763;-77
2024/03/16 11:08:49;;;;;;;;;;;20.80;55.30;;;;;;1563105;75;727;-79
2024/03/16 11:10:50;;;;;;;;;;;20.70;55.30;;;;;;1551702;75;1574;-78
2024/03/16 11:12:53;;;;;;;;;;;20.70;55.30;;;;;;1567218;75;1910;-77
2024/03/16 11:14:57;;;;;;;;;;;20.80;55.20;;;;;;1559246;75;1586;-77
2024/03/16 11:16:59;;;;;;;;;;;20.80;55.20;;;;;;1558022;75;846;-77
2024/03/16 11:19:01;;;;;;;;;;;20.70;55.20;;;;;;1560653;75;777;-76
2024/03/16 11:21:04;;;;;;;;;;;20.80;55.20;;;;;;1564165;74;730;-77
2024/03/16 11:23:07;;;;;;;;;;;20.80;55.20;;;;;;1567824;75;1141;-80
2024/03/16 11:25:21;;;;;;;;;;;20.70;55.20;;;;;;1551811;75;763;-78
2024/03/16 11:27:23;;;;;;;;;;;20.80;55.20;;;;;;1533700;76;746;-77
2024/03/16 11:29:27;;;;;;;;;;;20.70;55.20;;;;;;1561499;75;1594;-78
2024/03/16 11:31:29;;;;;;;;;;;20.70;55.10;;;;;;1556010;76;1141;-77
2024/03/16 11:33:31;;;;;;;;;;;20.70;55.10;;;;;;1558694;75;1938;-78
2024/03/16 11:35:33;;;;;;;;;;;20.70;55.00;;;;;;1567288;75;767;-78
2024/03/16 11:37:35;;;;;;;;;;;20.70;55.10;;;;;;1564756;75;705;-85
2024/03/16 11:39:37;;;;;;;;;;;20.70;55.10;;;;;;1536401;76;717;-76
2024/03/16 11:41:45;;;;;;;;;;;20.70;55.00;;;;;;1559778;76;742;-79
2024/03/16 11:43:48;;;;;;;;;;;20.80;55.00;;;;;;1549415;75;1492;-82
2024/03/16 11:45:50;;;;;;;;;;;20.70;55.00;;;;;;1563512;75;1024;-78
2024/03/16 11:47:52;;;;;;;;;;;20.70;55.00;;;;;;1563427;75;683;-78
2024/03/16 11:49:54;;;;;;;;;;;20.70;55.00;;;;;;1556752;75;679;-78
2024/03/16 11:51:56;;;;;;;;;;;20.70;55.00;;;;;;1560456;75;1923;-80
2024/03/16 11:53:58;;;;;;;;;;;20.70;55.00;;;;;;1555666;75;1126;-82
2024/03/16 11:56:00;;;;;;;;;;;20.80;54.90;;;;;;1555336;75;738;-81
2024/03/16 11:58:05;;;;;;;;;;;20.70;55.00;;;;;;1558831;76;1630;-78
2024/03/16 12:00:12;;;;;;;;;;;20.70;55.00;;;;;;1554715;76;760;-77
2024/03/16 12:02:11;;;;;;;;;;;20.80;54.90;;;;;;1554543;75;1661;-79
2024/03/16 12:04:13;;;;;;;;;;;20.70;54.90;;;;;;1560469;76;1189;-77
2024/03/16 12:06:15;;;;;;;;;;;20.70;54.90;;;;;;1554684;76;676;-78
2024/03/16 12:08:17;;;;;;;;;;;20.70;54.90;;;;;;1551801;76;638;-77
2024/03/16 12:10:20;;;;;;;;;;;20.70;54.90;;;;;;1554400;76;755;-81